Terminal Aerodrome Forecast
Issued by NWS

Home | Current Version | Previous Version | Text Only | Print | Product List | Glossary On
Versions: 1 2 3 4 5 6 7 8 9 10 11 12 13 14 15 16
000
FTUS45 KPIH 312322
TAFSUN
TAF
KSUN 312322Z 0100/0124 19007KT P6SM SCT200
     FM010300 32009KT P6SM FEW140
     FM011700 15010KT P6SM SCT120
     FM012000 20010G20KT P6SM BKN120
      AMD LTD TO CLD VIS AND WIND 0105/0113=

USA.gov is the U.S. government's official web portal to all federal, state and local government web resources and services.